sensor_id;sensor_type;location;lat;lon;timestamp;temperature;humidity
66119;DHT22;52912;48.564;9.302;2022-09-12T00:01:23;12.85;88.49
66119;DHT22;52912;48.564;9.302;2022-09-12T00:03:50;12.91;88.43
66119;DHT22;52912;48.564;9.302;2022-09-12T00:06:18;12.81;88.68
66119;DHT22;52912;48.564;9.302;2022-09-12T00:08:44;12.84;88.59
66119;DHT22;52912;48.564;9.302;2022-09-12T00:11:11;12.83;88.37
66119;DHT22;52912;48.564;9.302;2022-09-12T00:13:38;12.84;88.47
66119;DHT22;52912;48.564;9.302;2022-09-12T00:16:05;12.75;88.91
66119;DHT22;52912;48.564;9.302;2022-09-12T00:18:31;12.89;88.65
66119;DHT22;52912;48.564;9.302;2022-09-12T00:21:01;12.78;88.31
66119;DHT22;52912;48.564;9.302;2022-09-12T00:23:27;12.73;88.48
66119;DHT22;52912;48.564;9.302;2022-09-12T00:25:53;12.73;88.26
66119;DHT22;52912;48.564;9.302;2022-09-12T00:28:19;12.65;88.75
66119;DHT22;52912;48.564;9.302;2022-09-12T00:30:48;12.56;89.29
66119;DHT22;52912;48.564;9.302;2022-09-12T00:33:15;12.47;89.60
66119;DHT22;52912;48.564;9.302;2022-09-12T00:35:42;12.53;88.98
66119;DHT22;52912;48.564;9.302;2022-09-12T00:38:07;12.49;89.29
66119;DHT22;52912;48.564;9.302;2022-09-12T00:40:33;12.34;90.03
66119;DHT22;52912;48.564;9.302;2022-09-12T00:42:58;12.32;89.87
66119;DHT22;52912;48.564;9.302;2022-09-12T00:45:27;12.34;89.82
66119;DHT22;52912;48.564;9.302;2022-09-12T00:47:54;12.23;89.79
66119;DHT22;52912;48.564;9.302;2022-09-12T00:50:21;12.33;89.68
66119;DHT22;52912;48.564;9.302;2022-09-12T00:52:49;12.19;90.03
66119;DHT22;52912;48.564;9.302;2022-09-12T00:55:18;12.19;89.89
66119;DHT22;52912;48.564;9.302;2022-09-12T00:57:50;12.29;89.23
66119;DHT22;52912;48.564;9.302;2022-09-12T01:00:20;12.13;89.50
66119;DHT22;52912;48.564;9.302;2022-09-12T01:02:49;12.12;89.87
66119;DHT22;52912;48.564;9.302;2022-09-12T01:05:15;12.04;90.10
66119;DHT22;52912;48.564;9.302;2022-09-12T01:07:41;12.09;89.83
66119;DHT22;52912;48.564;9.302;2022-09-12T01:10:08;12.06;89.87
66119;DHT22;52912;48.564;9.302;2022-09-12T01:12:37;11.98;90.20
66119;DHT22;52912;48.564;9.302;2022-09-12T01:15:03;12.05;89.78
66119;DHT22;52912;48.564;9.302;2022-09-12T01:17:33;11.91;90.03
66119;DHT22;52912;48.564;9.302;2022-09-12T01:20:20;11.87;90.44
66119;DHT22;52912;48.564;9.302;2022-09-12T01:25:53;11.98;90.08
66119;DHT22;52912;48.564;9.302;2022-09-12T01:28:38;12.01;90.16
66119;DHT22;52912;48.564;9.302;2022-09-12T01:31:11;11.74;90.93
66119;DHT22;52912;48.564;9.302;2022-09-12T01:34:02;11.92;90.61
66119;DHT22;52912;48.564;9.302;2022-09-12T01:36:38;11.81;90.89
66119;DHT22;52912;48.564;9.302;2022-09-12T01:39:09;11.75;91.00
66119;DHT22;52912;48.564;9.302;2022-09-12T01:41:43;11.82;90.99
66119;DHT22;52912;48.564;9.302;2022-09-12T01:44:20;11.95;90.16
66119;DHT22;52912;48.564;9.302;2022-09-12T01:46:53;11.78;90.27
66119;DHT22;52912;48.564;9.302;2022-09-12T01:49:22;11.75;90.49
66119;DHT22;52912;48.564;9.302;2022-09-12T01:51:54;11.85;90.24
66119;DHT22;52912;48.564;9.302;2022-09-12T01:54:25;11.87;90.03
66119;DHT22;52912;48.564;9.302;2022-09-12T01:56:54;11.82;90.66
66119;DHT22;52912;48.564;9.302;2022-09-12T01:59:24;11.87;90.00
66119;DHT22;52912;48.564;9.302;2022-09-12T02:01:59;11.85;89.89
66119;DHT22;52912;48.564;9.302;2022-09-12T02:04:28;11.79;89.77
66119;DHT22;52912;48.564;9.302;2022-09-12T02:06:58;11.71;89.80
66119;DHT22;52912;48.564;9.302;2022-09-12T02:09:28;11.63;90.27
66119;DHT22;52912;48.564;9.302;2022-09-12T02:11:59;11.54;89.98
66119;DHT22;52912;48.564;9.302;2022-09-12T02:14:28;11.46;90.44
66119;DHT22;52912;48.564;9.302;2022-09-12T02:16:58;11.54;90.39
66119;DHT22;52912;48.564;9.302;2022-09-12T02:19:28;11.63;90.17
66119;DHT22;52912;48.564;9.302;2022-09-12T02:21:58;11.67;89.93
66119;DHT22;52912;48.564;9.302;2022-09-12T02:24:28;11.73;89.64
66119;DHT22;52912;48.564;9.302;2022-09-12T02:26:55;11.71;89.63
66119;DHT22;52912;48.564;9.302;2022-09-12T02:29:22;11.68;89.67
66119;DHT22;52912;48.564;9.302;2022-09-12T02:31:51;11.73;89.43
66119;DHT22;52912;48.564;9.302;2022-09-12T02:34:40;11.61;89.43
66119;DHT22;52912;48.564;9.302;2022-09-12T02:37:15;11.61;89.30
66119;DHT22;52912;48.564;9.302;2022-09-12T02:39:42;11.56;89.68
66119;DHT22;52912;48.564;9.302;2022-09-12T02:42:07;11.46;90.05
66119;DHT22;52912;48.564;9.302;2022-09-12T02:44:34;11.43;89.71
66119;DHT22;52912;48.564;9.302;2022-09-12T02:47:03;11.39;90.46
66119;DHT22;52912;48.564;9.302;2022-09-12T02:49:31;11.32;90.68
66119;DHT22;52912;48.564;9.302;2022-09-12T02:51:57;11.42;91.05
66119;DHT22;52912;48.564;9.302;2022-09-12T02:54:24;11.29;91.61
66119;DHT22;52912;48.564;9.302;2022-09-12T02:56:50;11.36;90.86
66119;DHT22;52912;48.564;9.302;2022-09-12T02:59:17;11.36;91.34
66119;DHT22;52912;48.564;9.302;2022-09-12T03:01:57;11.33;90.52
66119;DHT22;52912;48.564;9.302;2022-09-12T03:04:36;11.33;90.07
66119;DHT22;52912;48.564;9.302;2022-09-12T03:07:10;11.30;90.44
66119;DHT22;52912;48.564;9.302;2022-09-12T03:09:43;11.33;90.26
66119;DHT22;52912;48.564;9.302;2022-09-12T03:12:19;11.26;90.17
66119;DHT22;52912;48.564;9.302;2022-09-12T03:15:06;11.19;90.15
66119;DHT22;52912;48.564;9.302;2022-09-12T03:17:51;11.23;90.14
66119;DHT22;52912;48.564;9.302;2022-09-12T03:20:26;11.05;90.68
66119;DHT22;52912;48.564;9.302;2022-09-12T03:22:56;11.11;89.86
66119;DHT22;52912;48.564;9.302;2022-09-12T03:25:27;10.95;90.65
66119;DHT22;52912;48.564;9.302;2022-09-12T03:27:57;10.92;90.83
66119;DHT22;52912;48.564;9.302;2022-09-12T03:30:25;10.80;91.55
66119;DHT22;52912;48.564;9.302;2022-09-12T03:32:52;10.65;92.22
66119;DHT22;52912;48.564;9.302;2022-09-12T03:35:21;10.59;92.43
66119;DHT22;52912;48.564;9.302;2022-09-12T03:37:48;10.65;92.34
66119;DHT22;52912;48.564;9.302;2022-09-12T03:40:13;10.61;92.35
66119;DHT22;52912;48.564;9.302;2022-09-12T03:42:39;10.68;92.02
66119;DHT22;52912;48.564;9.302;2022-09-12T03:45:06;10.74;91.97
66119;DHT22;52912;48.564;9.302;2022-09-12T03:47:32;10.82;91.35
66119;DHT22;52912;48.564;9.302;2022-09-12T03:49:57;10.74;91.41
66119;DHT22;52912;48.564;9.302;2022-09-12T03:52:24;10.74;91.20
66119;DHT22;52912;48.564;9.302;2022-09-12T03:54:49;10.63;91.15
66119;DHT22;52912;48.564;9.302;2022-09-12T03:57:15;10.68;90.69
66119;DHT22;52912;48.564;9.302;2022-09-12T03:59:40;10.57;91.23
66119;DHT22;52912;48.564;9.302;2022-09-12T04:02:06;10.42;91.65
66119;DHT22;52912;48.564;9.302;2022-09-12T04:04:31;10.49;91.74
66119;DHT22;52912;48.564;9.302;2022-09-12T04:06:57;10.42;92.32
66119;DHT22;52912;48.564;9.302;2022-09-12T04:09:24;10.46;92.78
66119;DHT22;52912;48.564;9.302;2022-09-12T04:11:49;10.56;92.43
66119;DHT22;52912;48.564;9.302;2022-09-12T04:14:15;10.63;92.39
66119;DHT22;52912;48.564;9.302;2022-09-12T04:16:40;10.67;92.47
66119;DHT22;52912;48.564;9.302;2022-09-12T04:19:06;10.63;92.64
66119;DHT22;52912;48.564;9.302;2022-09-12T04:21:31;10.63;93.51
66119;DHT22;52912;48.564;9.302;2022-09-12T04:23:57;10.50;93.78
66119;DHT22;52912;48.564;9.302;2022-09-12T04:26:23;10.57;93.45
66119;DHT22;52912;48.564;9.302;2022-09-12T04:28:52;10.60;93.80
66119;DHT22;52912;48.564;9.302;2022-09-12T04:31:18;10.61;94.17
66119;DHT22;52912;48.564;9.302;2022-09-12T04:33:44;10.50;93.18
66119;DHT22;52912;48.564;9.302;2022-09-12T04:36:11;10.54;93.39
66119;DHT22;52912;48.564;9.302;2022-09-12T04:38:37;10.42;93.60
66119;DHT22;52912;48.564;9.302;2022-09-12T04:41:09;10.37;93.94
66119;DHT22;52912;48.564;9.302;2022-09-12T04:43:36;10.46;93.69
66119;DHT22;52912;48.564;9.302;2022-09-12T04:46:04;10.40;93.24
66119;DHT22;52912;48.564;9.302;2022-09-12T04:48:30;10.43;92.82
66119;DHT22;52912;48.564;9.302;2022-09-12T04:50:55;10.28;93.00
66119;DHT22;52912;48.564;9.302;2022-09-12T04:53:20;10.26;93.32
66119;DHT22;52912;48.564;9.302;2022-09-12T04:55:46;10.33;93.13
66119;DHT22;52912;48.564;9.302;2022-09-12T04:58:11;10.32;92.64
66119;DHT22;52912;48.564;9.302;2022-09-12T05:00:38;10.19;92.88
66119;DHT22;52912;48.564;9.302;2022-09-12T05:03:04;10.19;92.97
66119;DHT22;52912;48.564;9.302;2022-09-12T05:05:29;10.15;93.64
66119;DHT22;52912;48.564;9.302;2022-09-12T05:07:54;10.17;94.18
66119;DHT22;52912;48.564;9.302;2022-09-12T05:10:20;10.17;94.50
66119;DHT22;52912;48.564;9.302;2022-09-12T05:12:45;10.25;94.60
66119;DHT22;52912;48.564;9.302;2022-09-12T05:15:11;10.32;94.34
66119;DHT22;52912;48.564;9.302;2022-09-12T05:17:38;10.30;94.80
66119;DHT22;52912;48.564;9.302;2022-09-12T05:20:04;10.26;94.69
66119;DHT22;52912;48.564;9.302;2022-09-12T05:22:29;10.30;94.85
66119;DHT22;52912;48.564;9.302;2022-09-12T05:24:55;10.37;94.48
66119;DHT22;52912;48.564;9.302;2022-09-12T05:27:20;10.47;94.03
66119;DHT22;52912;48.564;9.302;2022-09-12T05:29:45;10.57;93.42
66119;DHT22;52912;48.564;9.302;2022-09-12T05:32:11;10.63;93.43
66119;DHT22;52912;48.564;9.302;2022-09-12T05:34:38;10.70;92.86
66119;DHT22;52912;48.564;9.302;2022-09-12T05:37:04;10.65;92.92
66119;DHT22;52912;48.564;9.302;2022-09-12T05:39:29;10.63;92.89
66119;DHT22;52912;48.564;9.302;2022-09-12T05:41:55;10.67;93.24
66119;DHT22;52912;48.564;9.302;2022-09-12T05:44:20;10.60;93.67
66119;DHT22;52912;48.564;9.302;2022-09-12T05:46:45;10.65;93.34
66119;DHT22;52912;48.564;9.302;2022-09-12T05:49:12;10.60;93.75
66119;DHT22;52912;48.564;9.302;2022-09-12T05:51:40;10.68;93.89
66119;DHT22;52912;48.564;9.302;2022-09-12T05:54:08;10.78;93.33
66119;DHT22;52912;48.564;9.302;2022-09-12T05:56:37;10.78;93.57
66119;DHT22;52912;48.564;9.302;2022-09-12T05:59:04;10.88;93.19
66119;DHT22;52912;48.564;9.302;2022-09-12T06:01:32;10.89;93.05
66119;DHT22;52912;48.564;9.302;2022-09-12T06:03:59;10.97;92.71
66119;DHT22;52912;48.564;9.302;2022-09-12T06:06:26;11.08;92.42
66119;DHT22;52912;48.564;9.302;2022-09-12T06:08:56;11.18;92.31
66119;DHT22;52912;48.564;9.302;2022-09-12T06:11:24;11.18;92.76
66119;DHT22;52912;48.564;9.302;2022-09-12T06:13:51;11.29;92.59
66119;DHT22;52912;48.564;9.302;2022-09-12T06:16:19;11.26;92.99
66119;DHT22;52912;48.564;9.302;2022-09-12T06:18:46;11.32;93.55
66119;DHT22;52912;48.564;9.302;2022-09-12T06:21:12;11.26;93.89
66119;DHT22;52912;48.564;9.302;2022-09-12T06:23:38;11.43;93.97
66119;DHT22;52912;48.564;9.302;2022-09-12T06:26:08;11.50;93.88
66119;DHT22;52912;48.564;9.302;2022-09-12T06:28:35;11.63;93.84
66119;DHT22;52912;48.564;9.302;2022-09-12T06:31:02;11.50;94.36
66119;DHT22;52912;48.564;9.302;2022-09-12T06:33:28;11.49;94.41
66119;DHT22;52912;48.564;9.302;2022-09-12T06:35:53;11.47;94.69
66119;DHT22;52912;48.564;9.302;2022-09-12T06:38:19;11.46;94.59
66119;DHT22;52912;48.564;9.302;2022-09-12T06:40:44;11.53;93.97
66119;DHT22;52912;48.564;9.302;2022-09-12T06:43:12;11.63;93.64
66119;DHT22;52912;48.564;9.302;2022-09-12T06:45:37;11.59;93.63
66119;DHT22;52912;48.564;9.302;2022-09-12T06:48:03;11.75;94.59
66119;DHT22;52912;48.564;9.302;2022-09-12T06:50:28;11.82;93.98
66119;DHT22;52912;48.564;9.302;2022-09-12T06:52:53;12.09;93.52
66119;DHT22;52912;48.564;9.302;2022-09-12T06:55:19;12.16;93.18
66119;DHT22;52912;48.564;9.302;2022-09-12T06:57:44;12.12;93.22
66119;DHT22;52912;48.564;9.302;2022-09-12T07:00:13;12.33;92.89
66119;DHT22;52912;48.564;9.302;2022-09-12T07:02:38;12.49;92.90
66119;DHT22;52912;48.564;9.302;2022-09-12T07:05:04;12.60;92.34
66119;DHT22;52912;48.564;9.302;2022-09-12T07:07:30;12.80;92.04
66119;DHT22;52912;48.564;9.302;2022-09-12T07:09:55;12.80;92.23
66119;DHT22;52912;48.564;9.302;2022-09-12T07:12:21;12.87;91.41
66119;DHT22;52912;48.564;9.302;2022-09-12T07:14:46;12.96;91.96
66119;DHT22;52912;48.564;9.302;2022-09-12T07:17:13;12.99;91.50
66119;DHT22;52912;48.564;9.302;2022-09-12T07:19:38;13.16;91.48
66119;DHT22;52912;48.564;9.302;2022-09-12T07:22:04;13.26;91.62
66119;DHT22;52912;48.564;9.302;2022-09-12T07:24:29;13.33;90.99
66119;DHT22;52912;48.564;9.302;2022-09-12T07:26:55;13.33;90.96
66119;DHT22;52912;48.564;9.302;2022-09-12T07:29:20;13.64;91.70
66119;DHT22;52912;48.564;9.302;2022-09-12T07:31:46;13.79;90.48
66119;DHT22;52912;48.564;9.302;2022-09-12T07:34:12;13.77;90.17
66119;DHT22;52912;48.564;9.302;2022-09-12T07:36:38;14.01;89.58
66119;DHT22;52912;48.564;9.302;2022-09-12T07:39:04;14.23;89.70
66119;DHT22;52912;48.564;9.302;2022-09-12T07:41:30;14.33;88.22
66119;DHT22;52912;48.564;9.302;2022-09-12T07:43:57;14.43;87.65
66119;DHT22;52912;48.564;9.302;2022-09-12T07:46:24;14.53;87.75
66119;DHT22;52912;48.564;9.302;2022-09-12T07:48:50;14.77;87.03
66119;DHT22;52912;48.564;9.302;2022-09-12T07:51:18;14.81;86.29
66119;DHT22;52912;48.564;9.302;2022-09-12T07:53:44;15.06;86.18
66119;DHT22;52912;48.564;9.302;2022-09-12T07:56:11;15.36;85.82
66119;DHT22;52912;48.564;9.302;2022-09-12T07:58:38;15.54;84.65
66119;DHT22;52912;48.564;9.302;2022-09-12T08:01:06;15.54;84.89
66119;DHT22;52912;48.564;9.302;2022-09-12T08:03:32;15.72;84.35
66119;DHT22;52912;48.564;9.302;2022-09-12T08:06:02;15.92;84.23
66119;DHT22;52912;48.564;9.302;2022-09-12T08:08:29;16.05;83.56
66119;DHT22;52912;48.564;9.302;2022-09-12T08:10:56;16.13;82.92
66119;DHT22;52912;48.564;9.302;2022-09-12T08:13:21;16.27;82.53
66119;DHT22;52912;48.564;9.302;2022-09-12T08:15:47;16.54;81.08
66119;DHT22;52912;48.564;9.302;2022-09-12T08:18:12;16.53;81.32
66119;DHT22;52912;48.564;9.302;2022-09-12T08:20:37;16.74;82.22
66119;DHT22;52912;48.564;9.302;2022-09-12T08:23:03;16.88;81.90
66119;DHT22;52912;48.564;9.302;2022-09-12T08:25:30;16.91;80.97
66119;DHT22;52912;48.564;9.302;2022-09-12T08:27:55;17.34;80.18
66119;DHT22;52912;48.564;9.302;2022-09-12T08:30:21;17.33;80.69
66119;DHT22;52912;48.564;9.302;2022-09-12T08:32:46;17.40;81.07
66119;DHT22;52912;48.564;9.302;2022-09-12T08:35:12;17.53;80.28
66119;DHT22;52912;48.564;9.302;2022-09-12T08:37:37;17.77;80.47
66119;DHT22;52912;48.564;9.302;2022-09-12T08:40:03;17.74;80.38
66119;DHT22;52912;48.564;9.302;2022-09-12T08:42:40;17.79;80.75
66119;DHT22;52912;48.564;9.302;2022-09-12T08:45:12;18.22;79.39
66119;DHT22;52912;48.564;9.302;2022-09-12T08:47:42;18.25;79.85
66119;DHT22;52912;48.564;9.302;2022-09-12T08:50:14;18.63;78.43
66119;DHT22;52912;48.564;9.302;2022-09-12T08:52:46;18.76;77.20
66119;DHT22;52912;48.564;9.302;2022-09-12T08:55:23;19.01;75.96
66119;DHT22;52912;48.564;9.302;2022-09-12T08:57:51;19.10;77.08
66119;DHT22;52912;48.564;9.302;2022-09-12T09:00:18;19.57;75.05
66119;DHT22;52912;48.564;9.302;2022-09-12T09:05:44;20.15;74.18
66119;DHT22;52912;48.564;9.302;2022-09-12T09:08:20;20.41;73.20
66119;DHT22;52912;48.564;9.302;2022-09-12T09:10:55;20.44;72.72
66119;DHT22;52912;48.564;9.302;2022-09-12T09:13:32;20.82;71.86
66119;DHT22;52912;48.564;9.302;2022-09-12T09:16:02;20.65;72.55
66119;DHT22;52912;48.564;9.302;2022-09-12T09:18:31;21.19;70.30
66119;DHT22;52912;48.564;9.302;2022-09-12T09:21:01;21.22;70.46
66119;DHT22;52912;48.564;9.302;2022-09-12T09:23:29;20.58;71.58
66119;DHT22;52912;48.564;9.302;2022-09-12T09:25:59;20.67;71.10
66119;DHT22;52912;48.564;9.302;2022-09-12T09:28:31;21.34;70.62
66119;DHT22;52912;48.564;9.302;2022-09-12T09:31:00;20.71;70.21
66119;DHT22;52912;48.564;9.302;2022-09-12T09:33:28;20.94;70.27
66119;DHT22;52912;48.564;9.302;2022-09-12T09:36:02;21.46;68.70
66119;DHT22;52912;48.564;9.302;2022-09-12T09:38:39;21.85;67.82
66119;DHT22;52912;48.564;9.302;2022-09-12T09:44:00;22.03;67.26
66119;DHT22;52912;48.564;9.302;2022-09-12T09:46:26;22.29;66.06
66119;DHT22;52912;48.564;9.302;2022-09-12T09:48:52;22.65;64.13
66119;DHT22;52912;48.564;9.302;2022-09-12T09:51:21;22.47;64.61
66119;DHT22;52912;48.564;9.302;2022-09-12T09:53:51;22.68;64.92
66119;DHT22;52912;48.564;9.302;2022-09-12T09:56:26;22.79;64.19
66119;DHT22;52912;48.564;9.302;2022-09-12T09:58:52;22.06;65.24
66119;DHT22;52912;48.564;9.302;2022-09-12T10:01:19;22.46;63.64
66119;DHT22;52912;48.564;9.302;2022-09-12T10:03:49;22.20;64.27
66119;DHT22;52912;48.564;9.302;2022-09-12T10:06:25;23.01;62.79
66119;DHT22;52912;48.564;9.302;2022-09-12T10:08:51;23.08;64.15
66119;DHT22;52912;48.564;9.302;2022-09-12T10:11:28;23.33;62.22
66119;DHT22;52912;48.564;9.302;2022-09-12T10:13:54;23.44;62.04
66119;DHT22;52912;48.564;9.302;2022-09-12T10:16:23;24.15;60.89
66119;DHT22;52912;48.564;9.302;2022-09-12T10:18:50;22.72;61.91
66119;DHT22;52912;48.564;9.302;2022-09-12T10:21:20;23.67;60.62
66119;DHT22;52912;48.564;9.302;2022-09-12T10:23:46;23.54;60.67
66119;DHT22;52912;48.564;9.302;2022-09-12T10:26:18;23.13;61.10
66119;DHT22;52912;48.564;9.302;2022-09-12T10:28:46;23.05;61.20
66119;DHT22;52912;48.564;9.302;2022-09-12T10:31:15;23.43;60.05
66119;DHT22;52912;48.564;9.302;2022-09-12T10:33:44;23.88;60.11
66119;DHT22;52912;48.564;9.302;2022-09-12T10:36:10;23.85;59.55
66119;DHT22;52912;48.564;9.302;2022-09-12T10:38:35;24.02;58.48
66119;DHT22;52912;48.564;9.302;2022-09-12T10:41:03;24.13;58.94
66119;DHT22;52912;48.564;9.302;2022-09-12T10:43:34;24.82;56.98
66119;DHT22;52912;48.564;9.302;2022-09-12T10:46:20;24.39;57.94
66119;DHT22;52912;48.564;9.302;2022-09-12T10:48:49;24.82;56.48
66119;DHT22;52912;48.564;9.302;2022-09-12T10:51:25;24.63;57.65
66119;DHT22;52912;48.564;9.302;2022-09-12T10:53:55;25.25;55.95
66119;DHT22;52912;48.564;9.302;2022-09-12T10:56:22;24.84;56.03
66119;DHT22;52912;48.564;9.302;2022-09-12T10:59:08;24.40;57.00
66119;DHT22;52912;48.564;9.302;2022-09-12T11:01:39;24.34;57.42
66119;DHT22;52912;48.564;9.302;2022-09-12T11:04:27;24.64;57.08
66119;DHT22;52912;48.564;9.302;2022-09-12T11:06:57;24.40;56.73
66119;DHT22;52912;48.564;9.302;2022-09-12T11:09:26;25.47;56.04
66119;DHT22;52912;48.564;9.302;2022-09-12T11:12:02;24.91;56.10
66119;DHT22;52912;48.564;9.302;2022-09-12T11:14:47;25.06;55.31
66119;DHT22;52912;48.564;9.302;2022-09-12T11:17:24;25.71;53.28
66119;DHT22;52912;48.564;9.302;2022-09-12T11:23:12;25.32;53.46
66119;DHT22;52912;48.564;9.302;2022-09-12T11:25:46;25.78;52.70
66119;DHT22;52912;48.564;9.302;2022-09-12T11:28:24;25.68;52.36
66119;DHT22;52912;48.564;9.302;2022-09-12T11:30:56;25.67;51.58
66119;DHT22;52912;48.564;9.302;2022-09-12T11:33:37;25.77;52.27
66119;DHT22;52912;48.564;9.302;2022-09-12T11:36:11;26.47;52.02
66119;DHT22;52912;48.564;9.302;2022-09-12T11:38:49;27.23;49.60
66119;DHT22;52912;48.564;9.302;2022-09-12T11:41:20;26.95;49.24
66119;DHT22;52912;48.564;9.302;2022-09-12T11:43:50;27.12;49.32
66119;DHT22;52912;48.564;9.302;2022-09-12T11:46:19;27.46;47.40
66119;DHT22;52912;48.564;9.302;2022-09-12T11:48:52;27.74;47.44
66119;DHT22;52912;48.564;9.302;2022-09-12T11:51:26;28.05;46.56
66119;DHT22;52912;48.564;9.302;2022-09-12T11:54:03;26.37;48.66
66119;DHT22;52912;48.564;9.302;2022-09-12T11:56:35;25.95;49.66
66119;DHT22;52912;48.564;9.302;2022-09-12T11:59:08;26.49;48.91
66119;DHT22;52912;48.564;9.302;2022-09-12T12:01:38;27.28;48.02
66119;DHT22;52912;48.564;9.302;2022-09-12T12:04:10;26.92;47.59
66119;DHT22;52912;48.564;9.302;2022-09-12T12:06:46;26.78;47.65
66119;DHT22;52912;48.564;9.302;2022-09-12T12:09:12;26.98;48.09
66119;DHT22;52912;48.564;9.302;2022-09-12T12:11:42;27.61;46.02
66119;DHT22;52912;48.564;9.302;2022-09-12T12:14:14;28.32;44.97
66119;DHT22;52912;48.564;9.302;2022-09-12T12:16:40;28.19;45.04
66119;DHT22;52912;48.564;9.302;2022-09-12T12:19:18;27.88;46.71
66119;DHT22;52912;48.564;9.302;2022-09-12T12:21:49;27.73;46.17
66119;DHT22;52912;48.564;9.302;2022-09-12T12:24:18;28.53;45.29
66119;DHT22;52912;48.564;9.302;2022-09-12T12:26:54;28.72;44.14
66119;DHT22;52912;48.564;9.302;2022-09-12T12:29:36;29.05;45.70
66119;DHT22;52912;48.564;9.302;2022-09-12T12:32:19;28.26;44.38
66119;DHT22;52912;48.564;9.302;2022-09-12T12:34:46;28.37;44.19
66119;DHT22;52912;48.564;9.302;2022-09-12T12:40:22;29.16;44.78
66119;DHT22;52912;48.564;9.302;2022-09-12T12:46:01;29.45;42.41
66119;DHT22;52912;48.564;9.302;2022-09-12T12:48:30;29.53;42.31
66119;DHT22;52912;48.564;9.302;2022-09-12T12:51:24;29.34;40.46
66119;DHT22;52912;48.564;9.302;2022-09-12T12:53:51;28.92;39.96
66119;DHT22;52912;48.564;9.302;2022-09-12T12:56:33;29.04;40.52
66119;DHT22;52912;48.564;9.302;2022-09-12T12:59:01;28.87;39.05
66119;DHT22;52912;48.564;9.302;2022-09-12T13:01:27;29.02;39.22
66119;DHT22;52912;48.564;9.302;2022-09-12T13:03:55;29.11;39.24
66119;DHT22;52912;48.564;9.302;2022-09-12T13:06:28;29.60;38.14
66119;DHT22;52912;48.564;9.302;2022-09-12T13:08:58;29.45;37.92
66119;DHT22;52912;48.564;9.302;2022-09-12T13:11:32;30.09;38.33
66119;DHT22;52912;48.564;9.302;2022-09-12T13:14:00;30.56;36.72
66119;DHT22;52912;48.564;9.302;2022-09-12T13:16:34;30.77;36.29
66119;DHT22;52912;48.564;9.302;2022-09-12T13:19:05;30.53;35.88
66119;DHT22;52912;48.564;9.302;2022-09-12T13:21:32;30.44;35.63
66119;DHT22;52912;48.564;9.302;2022-09-12T13:23:58;30.06;37.11
66119;DHT22;52912;48.564;9.302;2022-09-12T13:26:24;29.82;36.97
66119;DHT22;52912;48.564;9.302;2022-09-12T13:29:08;29.89;36.47
66119;DHT22;52912;48.564;9.302;2022-09-12T13:31:33;29.42;35.96
66119;DHT22;52912;48.564;9.302;2022-09-12T13:34:00;30.13;35.00
66119;DHT22;52912;48.564;9.302;2022-09-12T13:36:40;30.29;35.01
66119;DHT22;52912;48.564;9.302;2022-09-12T13:39:14;30.12;33.75
66119;DHT22;52912;48.564;9.302;2022-09-12T13:44:46;30.13;35.20
66119;DHT22;52912;48.564;9.302;2022-09-12T13:47:15;29.67;35.47
66119;DHT22;52912;48.564;9.302;2022-09-12T13:49:44;29.71;34.57
66119;DHT22;52912;48.564;9.302;2022-09-12T13:52:15;30.11;34.97
66119;DHT22;52912;48.564;9.302;2022-09-12T13:54:43;29.76;35.26
66119;DHT22;52912;48.564;9.302;2022-09-12T13:57:27;30.28;34.95
66119;DHT22;52912;48.564;9.302;2022-09-12T13:59:55;30.55;34.20
66119;DHT22;52912;48.564;9.302;2022-09-12T14:02:23;31.25;34.00
66119;DHT22;52912;48.564;9.302;2022-09-12T14:04:51;31.29;34.52
66119;DHT22;52912;48.564;9.302;2022-09-12T14:07:19;31.56;33.48
66119;DHT22;52912;48.564;9.302;2022-09-12T14:09:52;31.63;33.18
66119;DHT22;52912;48.564;9.302;2022-09-12T14:12:22;31.02;34.64
66119;DHT22;52912;48.564;9.302;2022-09-12T14:14:49;31.28;34.51
66119;DHT22;52912;48.564;9.302;2022-09-12T14:17:18;31.39;34.80
66119;DHT22;52912;48.564;9.302;2022-09-12T14:19:47;31.82;34.46
66119;DHT22;52912;48.564;9.302;2022-09-12T14:22:12;32.22;33.01
66119;DHT22;52912;48.564;9.302;2022-09-12T14:24:38;32.29;33.01
66119;DHT22;52912;48.564;9.302;2022-09-12T14:27:04;31.40;34.78
66119;DHT22;52912;48.564;9.302;2022-09-12T14:29:30;30.36;35.00
66119;DHT22;52912;48.564;9.302;2022-09-12T14:31:59;30.02;35.78
66119;DHT22;52912;48.564;9.302;2022-09-12T14:34:26;29.68;36.54
66119;DHT22;52912;48.564;9.302;2022-09-12T14:36:53;29.30;35.84
66119;DHT22;52912;48.564;9.302;2022-09-12T14:39:23;29.26;36.05
66119;DHT22;52912;48.564;9.302;2022-09-12T14:41:59;29.67;35.69
66119;DHT22;52912;48.564;9.302;2022-09-12T14:44:27;29.92;36.13
66119;DHT22;52912;48.564;9.302;2022-09-12T14:46:52;30.05;35.30
66119;DHT22;52912;48.564;9.302;2022-09-12T14:49:20;29.82;35.77
66119;DHT22;52912;48.564;9.302;2022-09-12T14:51:54;29.25;36.22
66119;DHT22;52912;48.564;9.302;2022-09-12T14:54:36;29.45;36.30
66119;DHT22;52912;48.564;9.302;2022-09-12T14:57:03;29.60;35.96
66119;DHT22;52912;48.564;9.302;2022-09-12T14:59:36;29.77;36.13
66119;DHT22;52912;48.564;9.302;2022-09-12T15:02:18;29.50;35.73
66119;DHT22;52912;48.564;9.302;2022-09-12T15:04:46;28.32;37.12
66119;DHT22;52912;48.564;9.302;2022-09-12T15:07:14;28.94;37.48
66119;DHT22;52912;48.564;9.302;2022-09-12T15:09:40;28.87;37.68
66119;DHT22;52912;48.564;9.302;2022-09-12T15:12:08;27.97;38.81
66119;DHT22;52912;48.564;9.302;2022-09-12T15:14:33;28.09;39.01
66119;DHT22;52912;48.564;9.302;2022-09-12T15:16:59;28.02;38.55
66119;DHT22;52912;48.564;9.302;2022-09-12T15:19:24;28.29;37.89
66119;DHT22;52912;48.564;9.302;2022-09-12T15:21:50;28.71;37.70
66119;DHT22;52912;48.564;9.302;2022-09-12T15:24:16;28.68;38.26
66119;DHT22;52912;48.564;9.302;2022-09-12T15:26:42;29.26;37.94
66119;DHT22;52912;48.564;9.302;2022-09-12T15:29:07;29.26;37.63
66119;DHT22;52912;48.564;9.302;2022-09-12T15:31:33;28.74;36.76
66119;DHT22;52912;48.564;9.302;2022-09-12T15:34:00;29.01;37.18
66119;DHT22;52912;48.564;9.302;2022-09-12T15:36:26;29.16;36.89
66119;DHT22;52912;48.564;9.302;2022-09-12T15:38:51;29.18;36.82
66119;DHT22;52912;48.564;9.302;2022-09-12T15:41:20;29.53;36.59
66119;DHT22;52912;48.564;9.302;2022-09-12T15:43:47;29.27;36.52
66119;DHT22;52912;48.564;9.302;2022-09-12T15:46:13;29.60;37.25
66119;DHT22;52912;48.564;9.302;2022-09-12T15:48:39;28.88;37.85
66119;DHT22;52912;48.564;9.302;2022-09-12T15:51:05;29.23;37.05
66119;DHT22;52912;48.564;9.302;2022-09-12T15:53:34;28.80;37.52
66119;DHT22;52912;48.564;9.302;2022-09-12T15:56:00;29.46;36.25
66119;DHT22;52912;48.564;9.302;2022-09-12T15:58:27;28.88;36.87
66119;DHT22;52912;48.564;9.302;2022-09-12T16:00:53;29.19;37.61
66119;DHT22;52912;48.564;9.302;2022-09-12T16:03:21;28.52;37.24